< < Back
Terminal Aerodrome Forecast


Current Version              Previous Versions:   1  2  3  4  5  6  7  8  9  

Terminal Aerodrome Forecast

761
FTUS42 KTAE 272329
TAFABY
TAF
KABY 272329Z 2800/2824 10005KT P6SM FEW070 SCT250
     FM281400 VRB04KT P6SM SCT050=

Latest METAR

157
SAUS70 KWBC 282200 RRL
MTRABY
METAR KABY 282153Z 00000KT 10SM SCT080 31/15 A3003 RMK AO2 SLP168
T03060150


USA.gov is the U.S. government's official web portal to all federal, state and local government web resources and services.